sensor_id;sensor_type;location;lat;lon;timestamp;P1;durP1;ratioP1;P2;durP2;ratioP2
10303;SDS011;5197;48.152;8.590;2022-11-12T00:00:50;76.57;;;12.13;;
10303;SDS011;5197;48.152;8.590;2022-11-12T00:03:18;51.30;;;12.03;;
10303;SDS011;5197;48.152;8.590;2022-11-12T00:05:45;55.43;;;11.40;;
10303;SDS011;5197;48.152;8.590;2022-11-12T00:08:14;63.67;;;13.03;;
10303;SDS011;5197;48.152;8.590;2022-11-12T00:10:43;26.90;;;10.33;;
10303;SDS011;5197;48.152;8.590;2022-11-12T00:13:11;29.47;;;10.10;;
10303;SDS011;5197;48.152;8.590;2022-11-12T00:15:39;34.07;;;10.40;;
10303;SDS011;5197;48.152;8.590;2022-11-12T00:18:06;29.73;;;9.70;;
10303;SDS011;5197;48.152;8.590;2022-11-12T00:20:33;28.50;;;9.47;;
10303;SDS011;5197;48.152;8.590;2022-11-12T00:23:01;41.17;;;9.97;;
10303;SDS011;5197;48.152;8.590;2022-11-12T00:25:28;23.40;;;9.33;;
10303;SDS011;5197;48.152;8.590;2022-11-12T00:28:05;24.63;;;9.07;;
10303;SDS011;5197;48.152;8.590;2022-11-12T00:30:36;24.47;;;8.97;;
10303;SDS011;5197;48.152;8.590;2022-11-12T00:33:04;74.63;;;10.87;;
10303;SDS011;5197;48.152;8.590;2022-11-12T00:35:31;25.97;;;9.77;;
10303;SDS011;5197;48.152;8.590;2022-11-12T00:37:59;41.10;;;10.63;;
10303;SDS011;5197;48.152;8.590;2022-11-12T00:40:27;57.33;;;10.83;;
10303;SDS011;5197;48.152;8.590;2022-11-12T00:42:54;32.40;;;9.03;;
10303;SDS011;5197;48.152;8.590;2022-11-12T00:45:22;17.60;;;8.47;;
10303;SDS011;5197;48.152;8.590;2022-11-12T00:47:52;53.67;;;8.70;;
10303;SDS011;5197;48.152;8.590;2022-11-12T00:50:20;43.87;;;9.50;;
10303;SDS011;5197;48.152;8.590;2022-11-12T00:52:47;106.53;;;10.30;;
10303;SDS011;5197;48.152;8.590;2022-11-12T00:55:16;89.80;;;10.17;;
10303;SDS011;5197;48.152;8.590;2022-11-12T00:57:43;215.67;;;14.87;;
10303;SDS011;5197;48.152;8.590;2022-11-12T01:00:13;191.20;;;14.37;;
10303;SDS011;5197;48.152;8.590;2022-11-12T01:02:42;67.47;;;9.43;;
10303;SDS011;5197;48.152;8.590;2022-11-12T01:05:16;62.20;;;9.60;;
10303;SDS011;5197;48.152;8.590;2022-11-12T01:07:43;132.87;;;11.50;;
10303;SDS011;5197;48.152;8.590;2022-11-12T01:10:10;245.00;;;15.77;;
10303;SDS011;5197;48.152;8.590;2022-11-12T01:12:37;266.23;;;15.23;;
10303;SDS011;5197;48.152;8.590;2022-11-12T01:15:05;72.03;;;11.67;;
10303;SDS011;5197;48.152;8.590;2022-11-12T01:17:33;37.83;;;8.73;;
10303;SDS011;5197;48.152;8.590;2022-11-12T01:20:00;162.70;;;12.70;;
10303;SDS011;5197;48.152;8.590;2022-11-12T01:22:27;89.47;;;9.77;;
10303;SDS011;5197;48.152;8.590;2022-11-12T01:24:54;52.07;;;9.13;;
10303;SDS011;5197;48.152;8.590;2022-11-12T01:27:20;13.23;;;6.70;;
10303;SDS011;5197;48.152;8.590;2022-11-12T01:29:47;11.17;;;7.57;;
10303;SDS011;5197;48.152;8.590;2022-11-12T01:32:14;15.10;;;7.63;;
10303;SDS011;5197;48.152;8.590;2022-11-12T01:34:41;23.70;;;7.97;;
10303;SDS011;5197;48.152;8.590;2022-11-12T01:37:08;30.63;;;7.83;;
10303;SDS011;5197;48.152;8.590;2022-11-12T01:39:35;35.93;;;7.93;;
10303;SDS011;5197;48.152;8.590;2022-11-12T01:42:02;38.40;;;8.23;;
10303;SDS011;5197;48.152;8.590;2022-11-12T01:44:30;11.10;;;6.63;;
10303;SDS011;5197;48.152;8.590;2022-11-12T01:54:42;23.50;;;7.00;;
10303;SDS011;5197;48.152;8.590;2022-11-12T01:57:14;17.67;;;6.30;;
10303;SDS011;5197;48.152;8.590;2022-11-12T01:59:44;8.13;;;5.37;;
10303;SDS011;5197;48.152;8.590;2022-11-12T02:02:14;9.80;;;5.87;;
10303;SDS011;5197;48.152;8.590;2022-11-12T02:04:41;6.77;;;5.63;;
10303;SDS011;5197;48.152;8.590;2022-11-12T02:07:08;6.07;;;5.47;;
10303;SDS011;5197;48.152;8.590;2022-11-12T02:09:37;6.93;;;5.70;;
10303;SDS011;5197;48.152;8.590;2022-11-12T02:12:04;5.47;;;4.93;;
10303;SDS011;5197;48.152;8.590;2022-11-12T02:14:31;9.13;;;5.80;;
10303;SDS011;5197;48.152;8.590;2022-11-12T02:16:59;7.57;;;5.90;;
10303;SDS011;5197;48.152;8.590;2022-11-12T02:19:26;11.67;;;6.10;;
10303;SDS011;5197;48.152;8.590;2022-11-12T02:21:53;9.33;;;6.20;;
10303;SDS011;5197;48.152;8.590;2022-11-12T02:26:49;14.37;;;6.70;;
10303;SDS011;5197;48.152;8.590;2022-11-12T02:29:18;11.53;;;6.87;;
10303;SDS011;5197;48.152;8.590;2022-11-12T02:31:46;8.63;;;6.63;;
10303;SDS011;5197;48.152;8.590;2022-11-12T02:34:13;8.00;;;6.23;;
10303;SDS011;5197;48.152;8.590;2022-11-12T02:36:40;7.37;;;6.37;;
10303;SDS011;5197;48.152;8.590;2022-11-12T02:39:07;9.77;;;6.37;;
10303;SDS011;5197;48.152;8.590;2022-11-12T02:41:34;9.03;;;5.97;;
10303;SDS011;5197;48.152;8.590;2022-11-12T02:44:01;9.37;;;6.03;;
10303;SDS011;5197;48.152;8.590;2022-11-12T02:46:28;10.57;;;6.00;;
10303;SDS011;5197;48.152;8.590;2022-11-12T02:48:55;8.60;;;6.13;;
10303;SDS011;5197;48.152;8.590;2022-11-12T02:51:22;11.03;;;6.07;;
10303;SDS011;5197;48.152;8.590;2022-11-12T02:53:49;15.77;;;6.00;;
10303;SDS011;5197;48.152;8.590;2022-11-12T02:56:15;13.70;;;5.73;;
10303;SDS011;5197;48.152;8.590;2022-11-12T02:58:42;6.83;;;5.83;;
10303;SDS011;5197;48.152;8.590;2022-11-12T03:01:09;10.87;;;5.90;;
10303;SDS011;5197;48.152;8.590;2022-11-12T03:03:36;8.33;;;5.57;;
10303;SDS011;5197;48.152;8.590;2022-11-12T03:06:03;8.93;;;6.03;;
10303;SDS011;5197;48.152;8.590;2022-11-12T03:08:31;12.73;;;5.80;;
10303;SDS011;5197;48.152;8.590;2022-11-12T03:10:58;10.63;;;5.57;;
10303;SDS011;5197;48.152;8.590;2022-11-12T03:13:30;15.83;;;5.87;;
10303;SDS011;5197;48.152;8.590;2022-11-12T03:15:58;10.47;;;5.80;;
10303;SDS011;5197;48.152;8.590;2022-11-12T03:18:26;12.70;;;6.27;;
10303;SDS011;5197;48.152;8.590;2022-11-12T03:20:54;11.67;;;6.17;;
10303;SDS011;5197;48.152;8.590;2022-11-12T03:23:21;22.10;;;6.23;;
10303;SDS011;5197;48.152;8.590;2022-11-12T03:25:48;17.17;;;6.63;;
10303;SDS011;5197;48.152;8.590;2022-11-12T03:28:15;14.07;;;6.63;;
10303;SDS011;5197;48.152;8.590;2022-11-12T03:30:42;15.47;;;6.07;;
10303;SDS011;5197;48.152;8.590;2022-11-12T03:33:11;21.80;;;6.77;;
10303;SDS011;5197;48.152;8.590;2022-11-12T03:35:39;9.10;;;6.07;;
10303;SDS011;5197;48.152;8.590;2022-11-12T03:38:06;14.50;;;6.90;;
10303;SDS011;5197;48.152;8.590;2022-11-12T03:40:33;17.07;;;6.57;;
10303;SDS011;5197;48.152;8.590;2022-11-12T03:43:00;13.90;;;6.40;;
10303;SDS011;5197;48.152;8.590;2022-11-12T03:45:27;17.23;;;6.67;;
10303;SDS011;5197;48.152;8.590;2022-11-12T03:47:55;29.07;;;6.70;;
10303;SDS011;5197;48.152;8.590;2022-11-12T03:50:24;18.17;;;7.00;;
10303;SDS011;5197;48.152;8.590;2022-11-12T03:52:53;13.30;;;6.90;;
10303;SDS011;5197;48.152;8.590;2022-11-12T03:55:22;23.60;;;6.83;;
10303;SDS011;5197;48.152;8.590;2022-11-12T03:57:51;19.57;;;6.73;;
10303;SDS011;5197;48.152;8.590;2022-11-12T04:00:20;23.20;;;6.67;;
10303;SDS011;5197;48.152;8.590;2022-11-12T04:02:49;49.53;;;7.60;;
10303;SDS011;5197;48.152;8.590;2022-11-12T04:05:16;19.17;;;6.03;;
10303;SDS011;5197;48.152;8.590;2022-11-12T04:08:03;9.50;;;5.70;;
10303;SDS011;5197;48.152;8.590;2022-11-12T04:10:50;9.10;;;5.43;;
10303;SDS011;5197;48.152;8.590;2022-11-12T04:13:17;7.93;;;5.23;;
10303;SDS011;5197;48.152;8.590;2022-11-12T04:18:39;7.00;;;5.20;;
10303;SDS011;5197;48.152;8.590;2022-11-12T04:21:36;8.17;;;5.30;;
10303;SDS011;5197;48.152;8.590;2022-11-12T04:24:18;14.93;;;5.67;;
10303;SDS011;5197;48.152;8.590;2022-11-12T04:27:04;13.20;;;5.77;;
10303;SDS011;5197;48.152;8.590;2022-11-12T04:29:31;8.50;;;5.80;;
10303;SDS011;5197;48.152;8.590;2022-11-12T04:32:17;11.50;;;5.50;;
10303;SDS011;5197;48.152;8.590;2022-11-12T04:34:44;12.03;;;6.10;;
10303;SDS011;5197;48.152;8.590;2022-11-12T04:37:11;10.60;;;6.07;;
10303;SDS011;5197;48.152;8.590;2022-11-12T04:39:38;20.43;;;6.60;;
10303;SDS011;5197;48.152;8.590;2022-11-12T04:42:07;21.03;;;6.80;;
10303;SDS011;5197;48.152;8.590;2022-11-12T04:44:53;17.73;;;6.93;;
10303;SDS011;5197;48.152;8.590;2022-11-12T04:47:30;15.47;;;6.77;;
10303;SDS011;5197;48.152;8.590;2022-11-12T04:50:03;23.43;;;6.87;;
10303;SDS011;5197;48.152;8.590;2022-11-12T04:52:33;19.90;;;7.37;;
10303;SDS011;5197;48.152;8.590;2022-11-12T04:55:00;16.87;;;6.70;;
10303;SDS011;5197;48.152;8.590;2022-11-12T04:57:27;16.07;;;6.87;;
10303;SDS011;5197;48.152;8.590;2022-11-12T04:59:54;20.77;;;6.67;;
10303;SDS011;5197;48.152;8.590;2022-11-12T05:02:21;17.60;;;7.57;;
10303;SDS011;5197;48.152;8.590;2022-11-12T05:04:48;15.00;;;7.50;;
10303;SDS011;5197;48.152;8.590;2022-11-12T05:07:15;13.20;;;6.97;;
10303;SDS011;5197;48.152;8.590;2022-11-12T05:09:43;20.43;;;6.83;;
10303;SDS011;5197;48.152;8.590;2022-11-12T05:12:10;12.97;;;6.60;;
10303;SDS011;5197;48.152;8.590;2022-11-12T05:14:37;20.77;;;8.47;;
10303;SDS011;5197;48.152;8.590;2022-11-12T05:17:05;10.47;;;6.93;;
10303;SDS011;5197;48.152;8.590;2022-11-12T05:19:32;16.37;;;8.20;;
10303;SDS011;5197;48.152;8.590;2022-11-12T05:22:00;23.60;;;7.80;;
10303;SDS011;5197;48.152;8.590;2022-11-12T05:24:34;17.00;;;7.93;;
10303;SDS011;5197;48.152;8.590;2022-11-12T05:27:18;12.43;;;6.80;;
10303;SDS011;5197;48.152;8.590;2022-11-12T05:29:46;13.37;;;7.17;;
10303;SDS011;5197;48.152;8.590;2022-11-12T05:32:13;12.00;;;6.90;;
10303;SDS011;5197;48.152;8.590;2022-11-12T05:34:41;11.63;;;7.00;;
10303;SDS011;5197;48.152;8.590;2022-11-12T05:37:09;19.00;;;7.93;;
10303;SDS011;5197;48.152;8.590;2022-11-12T05:39:38;19.27;;;9.47;;
10303;SDS011;5197;48.152;8.590;2022-11-12T05:42:05;18.53;;;8.20;;
10303;SDS011;5197;48.152;8.590;2022-11-12T05:44:40;16.20;;;9.03;;
10303;SDS011;5197;48.152;8.590;2022-11-12T05:47:07;13.90;;;8.50;;
10303;SDS011;5197;48.152;8.590;2022-11-12T05:49:34;18.10;;;10.00;;
10303;SDS011;5197;48.152;8.590;2022-11-12T05:52:01;21.60;;;10.73;;
10303;SDS011;5197;48.152;8.590;2022-11-12T05:54:28;23.50;;;11.20;;
10303;SDS011;5197;48.152;8.590;2022-11-12T05:56:55;21.77;;;9.10;;
10303;SDS011;5197;48.152;8.590;2022-11-12T05:59:22;22.87;;;8.37;;
10303;SDS011;5197;48.152;8.590;2022-11-12T06:01:49;17.97;;;8.33;;
10303;SDS011;5197;48.152;8.590;2022-11-12T06:04:16;36.50;;;9.20;;
10303;SDS011;5197;48.152;8.590;2022-11-12T06:06:43;44.87;;;9.37;;
10303;SDS011;5197;48.152;8.590;2022-11-12T06:09:11;34.90;;;9.47;;
10303;SDS011;5197;48.152;8.590;2022-11-12T06:11:38;30.47;;;8.67;;
10303;SDS011;5197;48.152;8.590;2022-11-12T06:14:05;21.63;;;8.00;;
10303;SDS011;5197;48.152;8.590;2022-11-12T06:16:32;23.70;;;8.90;;
10303;SDS011;5197;48.152;8.590;2022-11-12T06:18:59;26.20;;;9.47;;
10303;SDS011;5197;48.152;8.590;2022-11-12T06:21:26;24.77;;;8.93;;
10303;SDS011;5197;48.152;8.590;2022-11-12T06:23:56;20.80;;;9.30;;
10303;SDS011;5197;48.152;8.590;2022-11-12T06:26:27;18.40;;;8.20;;
10303;SDS011;5197;48.152;8.590;2022-11-12T06:28:55;31.93;;;9.13;;
10303;SDS011;5197;48.152;8.590;2022-11-12T06:31:22;22.03;;;9.23;;
10303;SDS011;5197;48.152;8.590;2022-11-12T06:33:49;18.33;;;8.50;;
10303;SDS011;5197;48.152;8.590;2022-11-12T06:36:17;23.00;;;8.47;;
10303;SDS011;5197;48.152;8.590;2022-11-12T06:38:45;20.43;;;8.20;;
10303;SDS011;5197;48.152;8.590;2022-11-12T06:41:13;15.83;;;8.13;;
10303;SDS011;5197;48.152;8.590;2022-11-12T06:43:40;28.97;;;9.03;;
10303;SDS011;5197;48.152;8.590;2022-11-12T06:46:12;21.33;;;8.20;;
10303;SDS011;5197;48.152;8.590;2022-11-12T06:48:41;18.00;;;7.67;;
10303;SDS011;5197;48.152;8.590;2022-11-12T06:51:14;15.37;;;7.50;;
10303;SDS011;5197;48.152;8.590;2022-11-12T06:53:44;17.87;;;8.33;;
10303;SDS011;5197;48.152;8.590;2022-11-12T06:56:11;15.30;;;7.43;;
10303;SDS011;5197;48.152;8.590;2022-11-12T06:58:39;17.83;;;7.63;;
10303;SDS011;5197;48.152;8.590;2022-11-12T07:01:11;21.57;;;7.83;;
10303;SDS011;5197;48.152;8.590;2022-11-12T07:03:40;17.07;;;6.40;;
10303;SDS011;5197;48.152;8.590;2022-11-12T07:06:08;22.33;;;9.00;;
10303;SDS011;5197;48.152;8.590;2022-11-12T07:08:40;19.10;;;8.33;;
10303;SDS011;5197;48.152;8.590;2022-11-12T07:11:07;15.60;;;8.40;;
10303;SDS011;5197;48.152;8.590;2022-11-12T07:13:36;22.23;;;10.50;;
10303;SDS011;5197;48.152;8.590;2022-11-12T07:16:04;17.53;;;9.83;;
10303;SDS011;5197;48.152;8.590;2022-11-12T07:18:33;21.20;;;8.77;;
10303;SDS011;5197;48.152;8.590;2022-11-12T07:21:02;17.43;;;8.37;;
10303;SDS011;5197;48.152;8.590;2022-11-12T07:23:31;21.43;;;8.13;;
10303;SDS011;5197;48.152;8.590;2022-11-12T07:26:01;32.40;;;9.57;;
10303;SDS011;5197;48.152;8.590;2022-11-12T07:28:30;24.70;;;9.40;;
10303;SDS011;5197;48.152;8.590;2022-11-12T07:31:01;20.77;;;9.60;;
10303;SDS011;5197;48.152;8.590;2022-11-12T07:33:30;16.47;;;8.80;;
10303;SDS011;5197;48.152;8.590;2022-11-12T07:36:02;21.27;;;8.50;;
10303;SDS011;5197;48.152;8.590;2022-11-12T07:38:35;22.60;;;9.03;;
10303;SDS011;5197;48.152;8.590;2022-11-12T07:43:36;30.33;;;9.47;;
10303;SDS011;5197;48.152;8.590;2022-11-12T07:46:08;29.43;;;8.30;;
10303;SDS011;5197;48.152;8.590;2022-11-12T07:48:37;15.80;;;9.37;;
10303;SDS011;5197;48.152;8.590;2022-11-12T07:51:06;15.17;;;8.97;;
10303;SDS011;5197;48.152;8.590;2022-11-12T07:53:38;12.27;;;7.63;;
10303;SDS011;5197;48.152;8.590;2022-11-12T07:56:05;21.90;;;8.80;;
10303;SDS011;5197;48.152;8.590;2022-11-12T07:58:33;27.93;;;8.43;;
10303;SDS011;5197;48.152;8.590;2022-11-12T08:01:07;13.30;;;8.13;;
10303;SDS011;5197;48.152;8.590;2022-11-12T08:03:49;26.20;;;9.77;;
10303;SDS011;5197;48.152;8.590;2022-11-12T08:06:16;14.50;;;9.30;;
10303;SDS011;5197;48.152;8.590;2022-11-12T08:08:43;27.17;;;7.93;;
10303;SDS011;5197;48.152;8.590;2022-11-12T08:11:10;16.47;;;6.70;;
10303;SDS011;5197;48.152;8.590;2022-11-12T08:13:37;16.03;;;7.40;;
10303;SDS011;5197;48.152;8.590;2022-11-12T08:16:04;13.27;;;7.80;;
10303;SDS011;5197;48.152;8.590;2022-11-12T08:18:31;36.27;;;12.37;;
10303;SDS011;5197;48.152;8.590;2022-11-12T08:21:00;25.27;;;8.97;;
10303;SDS011;5197;48.152;8.590;2022-11-12T08:23:28;16.23;;;6.33;;
10303;SDS011;5197;48.152;8.590;2022-11-12T08:26:02;8.10;;;6.80;;
10303;SDS011;5197;48.152;8.590;2022-11-12T08:28:31;9.17;;;5.63;;
10303;SDS011;5197;48.152;8.590;2022-11-12T08:31:04;12.93;;;7.27;;
10303;SDS011;5197;48.152;8.590;2022-11-12T08:33:33;10.93;;;6.40;;
10303;SDS011;5197;48.152;8.590;2022-11-12T08:36:03;18.33;;;9.00;;
10303;SDS011;5197;48.152;8.590;2022-11-12T08:38:32;10.77;;;7.57;;
10303;SDS011;5197;48.152;8.590;2022-11-12T08:41:03;7.43;;;5.97;;
10303;SDS011;5197;48.152;8.590;2022-11-12T08:43:32;11.87;;;7.27;;
10303;SDS011;5197;48.152;8.590;2022-11-12T08:46:00;10.00;;;6.90;;
10303;SDS011;5197;48.152;8.590;2022-11-12T08:48:27;11.83;;;6.50;;
10303;SDS011;5197;48.152;8.590;2022-11-12T08:50:55;9.13;;;6.07;;
10303;SDS011;5197;48.152;8.590;2022-11-12T08:53:23;9.60;;;7.00;;
10303;SDS011;5197;48.152;8.590;2022-11-12T08:55:54;10.07;;;6.83;;
10303;SDS011;5197;48.152;8.590;2022-11-12T08:58:22;9.47;;;6.90;;
10303;SDS011;5197;48.152;8.590;2022-11-12T09:00:51;8.33;;;6.60;;
10303;SDS011;5197;48.152;8.590;2022-11-12T09:03:19;10.20;;;7.37;;
10303;SDS011;5197;48.152;8.590;2022-11-12T09:05:48;10.07;;;7.07;;
10303;SDS011;5197;48.152;8.590;2022-11-12T09:08:17;10.17;;;7.47;;
10303;SDS011;5197;48.152;8.590;2022-11-12T09:10:46;11.73;;;7.40;;
10303;SDS011;5197;48.152;8.590;2022-11-12T09:13:13;10.97;;;7.80;;
10303;SDS011;5197;48.152;8.590;2022-11-12T09:15:42;13.57;;;8.07;;
10303;SDS011;5197;48.152;8.590;2022-11-12T09:18:11;12.07;;;7.20;;
10303;SDS011;5197;48.152;8.590;2022-11-12T09:20:40;8.33;;;6.77;;
10303;SDS011;5197;48.152;8.590;2022-11-12T09:23:08;10.40;;;7.73;;
10303;SDS011;5197;48.152;8.590;2022-11-12T09:25:38;10.23;;;7.07;;
10303;SDS011;5197;48.152;8.590;2022-11-12T09:28:12;14.20;;;8.77;;
10303;SDS011;5197;48.152;8.590;2022-11-12T09:30:42;10.27;;;8.07;;
10303;SDS011;5197;48.152;8.590;2022-11-12T09:33:16;9.33;;;7.40;;
10303;SDS011;5197;48.152;8.590;2022-11-12T09:35:51;7.27;;;6.53;;
10303;SDS011;5197;48.152;8.590;2022-11-12T09:38:19;10.17;;;7.00;;
10303;SDS011;5197;48.152;8.590;2022-11-12T09:43:19;10.23;;;7.63;;
10303;SDS011;5197;48.152;8.590;2022-11-12T09:45:52;9.13;;;7.50;;
10303;SDS011;5197;48.152;8.590;2022-11-12T09:48:42;7.53;;;6.47;;
10303;SDS011;5197;48.152;8.590;2022-11-12T09:51:31;8.80;;;7.40;;
10303;SDS011;5197;48.152;8.590;2022-11-12T09:54:33;9.43;;;6.73;;
10303;SDS011;5197;48.152;8.590;2022-11-12T09:56:53;6.77;;;6.10;;
10303;SDS011;5197;48.152;8.590;2022-11-12T09:59:31;9.70;;;6.63;;
10303;SDS011;5197;48.152;8.590;2022-11-12T10:16:17;13.30;;;8.97;;
10303;SDS011;5197;48.152;8.590;2022-11-12T10:25:14;6.90;;;6.20;;
10303;SDS011;5197;48.152;8.590;2022-11-12T10:27:42;7.00;;;6.30;;
10303;SDS011;5197;48.152;8.590;2022-11-12T10:30:18;7.43;;;6.20;;
10303;SDS011;5197;48.152;8.590;2022-11-12T10:32:46;7.30;;;6.60;;
10303;SDS011;5197;48.152;8.590;2022-11-12T10:35:16;7.90;;;7.10;;
10303;SDS011;5197;48.152;8.590;2022-11-12T10:37:59;6.90;;;6.30;;
10303;SDS011;5197;48.152;8.590;2022-11-12T10:40:35;7.50;;;6.80;;
10303;SDS011;5197;48.152;8.590;2022-11-12T10:45:44;8.67;;;7.50;;
10303;SDS011;5197;48.152;8.590;2022-11-12T10:50:55;8.87;;;7.13;;
10303;SDS011;5197;48.152;8.590;2022-11-12T10:53:35;8.67;;;7.87;;
10303;SDS011;5197;48.152;8.590;2022-11-12T10:56:04;7.50;;;6.80;;
10303;SDS011;5197;48.152;8.590;2022-11-12T11:01:42;7.13;;;6.43;;
10303;SDS011;5197;48.152;8.590;2022-11-12T11:07:04;7.53;;;6.83;;
10303;SDS011;5197;48.152;8.590;2022-11-12T11:09:55;7.97;;;6.53;;
10303;SDS011;5197;48.152;8.590;2022-11-12T11:17:51;6.87;;;6.27;;
10303;SDS011;5197;48.152;8.590;2022-11-12T11:20:25;6.90;;;6.07;;
10303;SDS011;5197;48.152;8.590;2022-11-12T11:25:47;7.00;;;6.40;;
10303;SDS011;5197;48.152;8.590;2022-11-12T11:50:30;8.00;;;7.20;;
10303;SDS011;5197;48.152;8.590;2022-11-12T11:53:46;7.67;;;6.77;;
10303;SDS011;5197;48.152;8.590;2022-11-12T12:04:29;8.73;;;7.83;;
10303;SDS011;5197;48.152;8.590;2022-11-12T12:21:05;8.20;;;7.50;;
10303;SDS011;5197;48.152;8.590;2022-11-12T12:29:04;7.30;;;6.60;;
10303;SDS011;5197;48.152;8.590;2022-11-12T12:31:43;7.80;;;7.07;;
10303;SDS011;5197;48.152;8.590;2022-11-12T12:36:56;7.30;;;6.57;;
10303;SDS011;5197;48.152;8.590;2022-11-12T12:42:21;6.83;;;6.23;;
10303;SDS011;5197;48.152;8.590;2022-11-12T12:45:00;6.70;;;6.10;;
10303;SDS011;5197;48.152;8.590;2022-11-12T12:47:46;7.83;;;6.70;;
10303;SDS011;5197;48.152;8.590;2022-11-12T12:50:15;7.80;;;7.10;;
10303;SDS011;5197;48.152;8.590;2022-11-12T12:52:58;8.00;;;7.17;;
10303;SDS011;5197;48.152;8.590;2022-11-12T12:55:39;7.20;;;6.50;;
10303;SDS011;5197;48.152;8.590;2022-11-12T13:00:52;6.70;;;6.10;;
10303;SDS011;5197;48.152;8.590;2022-11-12T13:03:45;6.83;;;6.23;;
10303;SDS011;5197;48.152;8.590;2022-11-12T13:06:15;9.00;;;7.00;;
10303;SDS011;5197;48.152;8.590;2022-11-12T13:08:57;7.33;;;6.33;;
10303;SDS011;5197;48.152;8.590;2022-11-12T13:19:37;6.77;;;6.17;;
10303;SDS011;5197;48.152;8.590;2022-11-12T13:32:40;8.20;;;7.40;;
10303;SDS011;5197;48.152;8.590;2022-11-12T13:50:57;7.93;;;7.13;;
10303;SDS011;5197;48.152;8.590;2022-11-12T13:53:29;7.53;;;6.90;;
10303;SDS011;5197;48.152;8.590;2022-11-12T13:55:57;8.00;;;7.20;;
10303;SDS011;5197;48.152;8.590;2022-11-12T13:58:28;7.50;;;6.80;;
10303;SDS011;5197;48.152;8.590;2022-11-12T14:00:58;7.67;;;6.97;;
10303;SDS011;5197;48.152;8.590;2022-11-12T14:03:28;7.77;;;6.97;;
10303;SDS011;5197;48.152;8.590;2022-11-12T14:06:14;7.83;;;7.13;;
10303;SDS011;5197;48.152;8.590;2022-11-12T14:20:36;7.93;;;7.13;;
10303;SDS011;5197;48.152;8.590;2022-11-12T14:23:15;7.47;;;6.77;;
10303;SDS011;5197;48.152;8.590;2022-11-12T14:25:54;10.03;;;7.17;;
10303;SDS011;5197;48.152;8.590;2022-11-12T14:30:56;7.03;;;6.43;;
10303;SDS011;5197;48.152;8.590;2022-11-12T14:33:26;7.30;;;6.63;;
10303;SDS011;5197;48.152;8.590;2022-11-12T14:36:01;8.00;;;7.23;;
10303;SDS011;5197;48.152;8.590;2022-11-12T14:38:32;7.23;;;6.63;;
10303;SDS011;5197;48.152;8.590;2022-11-12T14:41:29;10.00;;;7.60;;
10303;SDS011;5197;48.152;8.590;2022-11-12T14:44:02;9.13;;;7.47;;
10303;SDS011;5197;48.152;8.590;2022-11-12T14:46:45;7.97;;;7.17;;
10303;SDS011;5197;48.152;8.590;2022-11-12T14:54:52;7.73;;;6.90;;
10303;SDS011;5197;48.152;8.590;2022-11-12T14:57:26;8.40;;;7.53;;
10303;SDS011;5197;48.152;8.590;2022-11-12T14:59:55;8.17;;;7.33;;
10303;SDS011;5197;48.152;8.590;2022-11-12T15:02:24;9.20;;;8.17;;
10303;SDS011;5197;48.152;8.590;2022-11-12T15:05:15;8.87;;;7.57;;
10303;SDS011;5197;48.152;8.590;2022-11-12T15:13:00;9.43;;;8.17;;
10303;SDS011;5197;48.152;8.590;2022-11-12T15:15:29;8.57;;;7.30;;
10303;SDS011;5197;48.152;8.590;2022-11-12T15:18:03;8.60;;;7.70;;
10303;SDS011;5197;48.152;8.590;2022-11-12T15:20:37;8.53;;;7.50;;
10303;SDS011;5197;48.152;8.590;2022-11-12T15:23:04;10.93;;;8.37;;
10303;SDS011;5197;48.152;8.590;2022-11-12T15:25:41;9.13;;;8.07;;
10303;SDS011;5197;48.152;8.590;2022-11-12T15:28:11;9.63;;;8.07;;
10303;SDS011;5197;48.152;8.590;2022-11-12T15:31:14;14.00;;;8.47;;
10303;SDS011;5197;48.152;8.590;2022-11-12T15:33:44;9.80;;;8.40;;
10303;SDS011;5197;48.152;8.590;2022-11-12T15:36:14;9.50;;;7.67;;
10303;SDS011;5197;48.152;8.590;2022-11-12T15:38:47;9.20;;;8.30;;
10303;SDS011;5197;48.152;8.590;2022-11-12T15:41:21;10.47;;;8.57;;
10303;SDS011;5197;48.152;8.590;2022-11-12T15:43:53;9.50;;;8.10;;
10303;SDS011;5197;48.152;8.590;2022-11-12T15:46:21;8.90;;;7.67;;
10303;SDS011;5197;48.152;8.590;2022-11-12T15:48:48;8.67;;;7.73;;
10303;SDS011;5197;48.152;8.590;2022-11-12T15:51:21;8.50;;;7.20;;
10303;SDS011;5197;48.152;8.590;2022-11-12T15:53:48;8.33;;;7.17;;
10303;SDS011;5197;48.152;8.590;2022-11-12T15:56:16;7.40;;;6.60;;
10303;SDS011;5197;48.152;8.590;2022-11-12T15:58:46;8.13;;;7.03;;
10303;SDS011;5197;48.152;8.590;2022-11-12T16:01:14;8.03;;;7.23;;
10303;SDS011;5197;48.152;8.590;2022-11-12T16:03:41;8.17;;;7.37;;
10303;SDS011;5197;48.152;8.590;2022-11-12T16:06:11;10.67;;;7.77;;
10303;SDS011;5197;48.152;8.590;2022-11-12T16:08:39;7.87;;;7.00;;
10303;SDS011;5197;48.152;8.590;2022-11-12T16:11:07;13.10;;;9.43;;
10303;SDS011;5197;48.152;8.590;2022-11-12T16:13:55;11.13;;;8.43;;
10303;SDS011;5197;48.152;8.590;2022-11-12T16:16:22;11.67;;;8.63;;
10303;SDS011;5197;48.152;8.590;2022-11-12T16:18:50;12.17;;;9.90;;
10303;SDS011;5197;48.152;8.590;2022-11-12T16:21:17;16.00;;;10.27;;
10303;SDS011;5197;48.152;8.590;2022-11-12T16:23:46;16.87;;;10.03;;
10303;SDS011;5197;48.152;8.590;2022-11-12T16:26:14;20.67;;;11.27;;
10303;SDS011;5197;48.152;8.590;2022-11-12T16:28:45;17.60;;;10.30;;
10303;SDS011;5197;48.152;8.590;2022-11-12T16:31:12;13.53;;;9.07;;
10303;SDS011;5197;48.152;8.590;2022-11-12T16:33:39;11.27;;;9.10;;
10303;SDS011;5197;48.152;8.590;2022-11-12T16:36:13;11.53;;;9.57;;
10303;SDS011;5197;48.152;8.590;2022-11-12T16:38:40;11.73;;;9.43;;
10303;SDS011;5197;48.152;8.590;2022-11-12T16:41:08;11.73;;;9.10;;
10303;SDS011;5197;48.152;8.590;2022-11-12T16:43:38;13.33;;;9.17;;
10303;SDS011;5197;48.152;8.590;2022-11-12T16:46:07;15.43;;;10.43;;
10303;SDS011;5197;48.152;8.590;2022-11-12T16:48:39;13.37;;;10.60;;
10303;SDS011;5197;48.152;8.590;2022-11-12T16:51:10;15.33;;;11.03;;
10303;SDS011;5197;48.152;8.590;2022-11-12T16:53:42;23.63;;;14.13;;
10303;SDS011;5197;48.152;8.590;2022-11-12T16:56:13;21.83;;;14.57;;
10303;SDS011;5197;48.152;8.590;2022-11-12T16:58:46;17.47;;;12.47;;
10303;SDS011;5197;48.152;8.590;2022-11-12T17:01:21;17.90;;;11.93;;
10303;SDS011;5197;48.152;8.590;2022-11-12T17:03:56;12.53;;;10.03;;
10303;SDS011;5197;48.152;8.590;2022-11-12T17:06:37;16.67;;;11.20;;
10303;SDS011;5197;48.152;8.590;2022-11-12T17:09:06;14.30;;;10.80;;
10303;SDS011;5197;48.152;8.590;2022-11-12T17:11:35;16.53;;;12.13;;
10303;SDS011;5197;48.152;8.590;2022-11-12T17:14:03;18.57;;;12.27;;
10303;SDS011;5197;48.152;8.590;2022-11-12T17:16:32;12.23;;;10.20;;
10303;SDS011;5197;48.152;8.590;2022-11-12T17:18:59;14.73;;;10.87;;
10303;SDS011;5197;48.152;8.590;2022-11-12T17:21:27;15.63;;;11.17;;
10303;SDS011;5197;48.152;8.590;2022-11-12T17:23:54;19.57;;;14.50;;
10303;SDS011;5197;48.152;8.590;2022-11-12T17:26:23;97.37;;;59.07;;
10303;SDS011;5197;48.152;8.590;2022-11-12T17:28:50;96.53;;;64.20;;
10303;SDS011;5197;48.152;8.590;2022-11-12T17:31:26;79.23;;;55.70;;
10303;SDS011;5197;48.152;8.590;2022-11-12T17:33:57;61.90;;;44.03;;
10303;SDS011;5197;48.152;8.590;2022-11-12T17:36:24;51.50;;;38.23;;
10303;SDS011;5197;48.152;8.590;2022-11-12T17:38:53;20.73;;;13.40;;
10303;SDS011;5197;48.152;8.590;2022-11-12T17:41:21;17.87;;;12.53;;
10303;SDS011;5197;48.152;8.590;2022-11-12T17:43:53;27.13;;;15.87;;
10303;SDS011;5197;48.152;8.590;2022-11-12T17:46:24;25.50;;;16.33;;
10303;SDS011;5197;48.152;8.590;2022-11-12T17:48:53;26.17;;;15.80;;
10303;SDS011;5197;48.152;8.590;2022-11-12T17:51:21;21.57;;;14.33;;
10303;SDS011;5197;48.152;8.590;2022-11-12T17:53:49;19.87;;;14.20;;
10303;SDS011;5197;48.152;8.590;2022-11-12T17:56:18;26.03;;;14.10;;
10303;SDS011;5197;48.152;8.590;2022-11-12T17:58:47;21.63;;;14.10;;
10303;SDS011;5197;48.152;8.590;2022-11-12T18:01:19;19.20;;;13.57;;
10303;SDS011;5197;48.152;8.590;2022-11-12T18:03:52;30.23;;;20.77;;
10303;SDS011;5197;48.152;8.590;2022-11-12T18:06:24;29.50;;;18.40;;